sensor_id;sensor_type;location;lat;lon;timestamp;temperature;humidity
53978;DHT22;39886;47.984;-1.586;2023-04-25T00:00:26;18.40;66.70
53978;DHT22;39886;47.984;-1.586;2023-04-25T00:02:52;18.30;66.70
53978;DHT22;39886;47.984;-1.586;2023-04-25T00:05:18;18.30;66.70
53978;DHT22;39886;47.984;-1.586;2023-04-25T00:07:45;18.30;66.60
53978;DHT22;39886;47.984;-1.586;2023-04-25T00:10:11;18.30;66.70
53978;DHT22;39886;47.984;-1.586;2023-04-25T00:12:37;18.30;66.70
53978;DHT22;39886;47.984;-1.586;2023-04-25T00:15:04;18.30;66.70
53978;DHT22;39886;47.984;-1.586;2023-04-25T00:17:30;18.30;66.70
53978;DHT22;39886;47.984;-1.586;2023-04-25T00:19:57;18.30;66.70
53978;DHT22;39886;47.984;-1.586;2023-04-25T00:22:23;18.30;66.70
53978;DHT22;39886;47.984;-1.586;2023-04-25T00:24:49;18.30;66.70
53978;DHT22;39886;47.984;-1.586;2023-04-25T00:27:15;18.30;66.70
53978;DHT22;39886;47.984;-1.586;2023-04-25T00:29:41;18.30;67.40
53978;DHT22;39886;47.984;-1.586;2023-04-25T00:32:07;18.20;66.70
53978;DHT22;39886;47.984;-1.586;2023-04-25T00:34:33;18.20;66.70
53978;DHT22;39886;47.984;-1.586;2023-04-25T00:36:59;18.20;66.60
53978;DHT22;39886;47.984;-1.586;2023-04-25T00:39:27;18.20;66.60
53978;DHT22;39886;47.984;-1.586;2023-04-25T00:41:54;18.20;66.70
53978;DHT22;39886;47.984;-1.586;2023-04-25T00:44:20;18.20;66.70
53978;DHT22;39886;47.984;-1.586;2023-04-25T00:46:47;18.20;66.70
53978;DHT22;39886;47.984;-1.586;2023-04-25T00:49:14;18.20;66.70
53978;DHT22;39886;47.984;-1.586;2023-04-25T00:51:42;18.20;66.70
53978;DHT22;39886;47.984;-1.586;2023-04-25T00:54:10;18.20;66.70
53978;DHT22;39886;47.984;-1.586;2023-04-25T00:56:36;18.10;66.60
53978;DHT22;39886;47.984;-1.586;2023-04-25T00:59:03;18.20;66.70
53978;DHT22;39886;47.984;-1.586;2023-04-25T01:01:29;18.20;66.70
53978;DHT22;39886;47.984;-1.586;2023-04-25T01:03:58;18.10;66.70
53978;DHT22;39886;47.984;-1.586;2023-04-25T01:06:24;18.10;66.70
53978;DHT22;39886;47.984;-1.586;2023-04-25T01:08:51;18.10;66.70
53978;DHT22;39886;47.984;-1.586;2023-04-25T01:11:17;18.10;66.70
53978;DHT22;39886;47.984;-1.586;2023-04-25T01:13:43;18.10;66.70
53978;DHT22;39886;47.984;-1.586;2023-04-25T01:16:08;18.10;66.70
53978;DHT22;39886;47.984;-1.586;2023-04-25T01:18:35;18.10;66.70
53978;DHT22;39886;47.984;-1.586;2023-04-25T01:21:09;18.10;66.70
53978;DHT22;39886;47.984;-1.586;2023-04-25T01:23:35;18.10;66.70
53978;DHT22;39886;47.984;-1.586;2023-04-25T01:26:01;18.00;66.60
53978;DHT22;39886;47.984;-1.586;2023-04-25T01:28:28;18.10;66.70
53978;DHT22;39886;47.984;-1.586;2023-04-25T01:30:54;18.00;66.60
53978;DHT22;39886;47.984;-1.586;2023-04-25T01:33:21;18.00;66.60
53978;DHT22;39886;47.984;-1.586;2023-04-25T01:35:47;18.00;66.70
53978;DHT22;39886;47.984;-1.586;2023-04-25T01:38:13;18.00;66.70
53978;DHT22;39886;47.984;-1.586;2023-04-25T01:40:40;18.00;66.70
53978;DHT22;39886;47.984;-1.586;2023-04-25T01:43:07;18.00;66.60
53978;DHT22;39886;47.984;-1.586;2023-04-25T01:45:41;18.00;66.60
53978;DHT22;39886;47.984;-1.586;2023-04-25T01:48:08;18.00;66.60
53978;DHT22;39886;47.984;-1.586;2023-04-25T01:50:34;18.00;66.60
53978;DHT22;39886;47.984;-1.586;2023-04-25T01:53:00;18.00;66.60
53978;DHT22;39886;47.984;-1.586;2023-04-25T01:55:27;18.00;66.60
53978;DHT22;39886;47.984;-1.586;2023-04-25T01:57:53;18.00;66.60
53978;DHT22;39886;47.984;-1.586;2023-04-25T02:00:19;18.00;66.70
53978;DHT22;39886;47.984;-1.586;2023-04-25T02:02:46;18.00;66.60
53978;DHT22;39886;47.984;-1.586;2023-04-25T02:05:11;17.90;66.60
53978;DHT22;39886;47.984;-1.586;2023-04-25T02:07:37;17.90;66.60
53978;DHT22;39886;47.984;-1.586;2023-04-25T02:10:03;17.90;66.60
53978;DHT22;39886;47.984;-1.586;2023-04-25T02:12:30;17.90;66.60
53978;DHT22;39886;47.984;-1.586;2023-04-25T02:14:56;17.90;66.60
53978;DHT22;39886;47.984;-1.586;2023-04-25T02:17:22;17.90;66.60
53978;DHT22;39886;47.984;-1.586;2023-04-25T02:19:48;17.90;66.60
53978;DHT22;39886;47.984;-1.586;2023-04-25T02:22:14;17.90;66.60
53978;DHT22;39886;47.984;-1.586;2023-04-25T02:24:39;17.90;66.60
53978;DHT22;39886;47.984;-1.586;2023-04-25T02:27:05;17.90;66.50
53978;DHT22;39886;47.984;-1.586;2023-04-25T02:29:31;17.90;66.60
53978;DHT22;39886;47.984;-1.586;2023-04-25T02:31:57;17.90;66.50
53978;DHT22;39886;47.984;-1.586;2023-04-25T02:34:22;17.90;66.50
53978;DHT22;39886;47.984;-1.586;2023-04-25T02:36:49;17.80;66.70
53978;DHT22;39886;47.984;-1.586;2023-04-25T02:39:16;17.80;66.50
53978;DHT22;39886;47.984;-1.586;2023-04-25T02:41:42;17.80;66.50
53978;DHT22;39886;47.984;-1.586;2023-04-25T02:44:08;17.80;66.50
53978;DHT22;39886;47.984;-1.586;2023-04-25T02:46:34;17.80;66.50
53978;DHT22;39886;47.984;-1.586;2023-04-25T02:48:59;17.80;66.50
53978;DHT22;39886;47.984;-1.586;2023-04-25T02:51:25;17.80;66.50
53978;DHT22;39886;47.984;-1.586;2023-04-25T02:53:51;17.80;66.50
53978;DHT22;39886;47.984;-1.586;2023-04-25T02:56:17;17.80;66.50
53978;DHT22;39886;47.984;-1.586;2023-04-25T02:58:43;17.80;66.50
53978;DHT22;39886;47.984;-1.586;2023-04-25T03:01:08;17.80;66.50
53978;DHT22;39886;47.984;-1.586;2023-04-25T03:03:34;17.80;66.50
53978;DHT22;39886;47.984;-1.586;2023-04-25T03:06:00;17.80;66.50
53978;DHT22;39886;47.984;-1.586;2023-04-25T03:08:26;17.80;66.50
53978;DHT22;39886;47.984;-1.586;2023-04-25T03:10:54;17.80;66.50
53978;DHT22;39886;47.984;-1.586;2023-04-25T03:13:21;17.80;67.10
53978;DHT22;39886;47.984;-1.586;2023-04-25T03:15:46;17.70;66.40
53978;DHT22;39886;47.984;-1.586;2023-04-25T03:18:12;17.70;66.40
53978;DHT22;39886;47.984;-1.586;2023-04-25T03:20:38;17.70;66.40
53978;DHT22;39886;47.984;-1.586;2023-04-25T03:23:04;17.70;66.40
53978;DHT22;39886;47.984;-1.586;2023-04-25T03:25:30;17.70;66.30
53978;DHT22;39886;47.984;-1.586;2023-04-25T03:27:56;17.70;66.40
53978;DHT22;39886;47.984;-1.586;2023-04-25T03:30:22;17.70;66.40
53978;DHT22;39886;47.984;-1.586;2023-04-25T03:32:48;17.70;66.40
53978;DHT22;39886;47.984;-1.586;2023-04-25T03:35:13;17.70;66.40
53978;DHT22;39886;47.984;-1.586;2023-04-25T03:37:39;17.70;66.40
53978;DHT22;39886;47.984;-1.586;2023-04-25T03:40:06;17.70;66.40
53978;DHT22;39886;47.984;-1.586;2023-04-25T03:42:32;17.70;66.40
53978;DHT22;39886;47.984;-1.586;2023-04-25T03:44:58;17.70;66.40
53978;DHT22;39886;47.984;-1.586;2023-04-25T03:47:23;17.70;66.30
53978;DHT22;39886;47.984;-1.586;2023-04-25T03:49:49;17.70;66.40
53978;DHT22;39886;47.984;-1.586;2023-04-25T03:52:17;17.70;66.40
53978;DHT22;39886;47.984;-1.586;2023-04-25T03:54:43;17.70;66.40
53978;DHT22;39886;47.984;-1.586;2023-04-25T03:57:08;17.70;66.40
53978;DHT22;39886;47.984;-1.586;2023-04-25T03:59:34;17.70;66.40
53978;DHT22;39886;47.984;-1.586;2023-04-25T04:02:00;17.60;66.30
53978;DHT22;39886;47.984;-1.586;2023-04-25T04:04:25;17.60;66.30
53978;DHT22;39886;47.984;-1.586;2023-04-25T04:06:51;17.60;66.30
53978;DHT22;39886;47.984;-1.586;2023-04-25T04:09:18;17.60;66.30
53978;DHT22;39886;47.984;-1.586;2023-04-25T04:11:44;17.60;66.30
53978;DHT22;39886;47.984;-1.586;2023-04-25T04:14:10;17.60;66.30
53978;DHT22;39886;47.984;-1.586;2023-04-25T04:16:36;17.60;66.30
53978;DHT22;39886;47.984;-1.586;2023-04-25T04:19:02;17.60;66.30
53978;DHT22;39886;47.984;-1.586;2023-04-25T04:21:28;17.60;66.30
53978;DHT22;39886;47.984;-1.586;2023-04-25T04:23:54;17.60;66.30
53978;DHT22;39886;47.984;-1.586;2023-04-25T04:26:20;17.60;66.30
53978;DHT22;39886;47.984;-1.586;2023-04-25T04:28:50;17.60;66.30
53978;DHT22;39886;47.984;-1.586;2023-04-25T04:31:17;17.60;66.30
53978;DHT22;39886;47.984;-1.586;2023-04-25T04:33:45;17.60;66.30
53978;DHT22;39886;47.984;-1.586;2023-04-25T04:36:11;17.60;66.30
53978;DHT22;39886;47.984;-1.586;2023-04-25T04:38:37;17.60;66.30
53978;DHT22;39886;47.984;-1.586;2023-04-25T04:41:02;17.60;66.30
53978;DHT22;39886;47.984;-1.586;2023-04-25T04:43:29;17.60;66.30
53978;DHT22;39886;47.984;-1.586;2023-04-25T04:45:55;17.60;66.30
53978;DHT22;39886;47.984;-1.586;2023-04-25T04:48:24;17.60;66.20
53978;DHT22;39886;47.984;-1.586;2023-04-25T04:50:50;17.50;66.20
53978;DHT22;39886;47.984;-1.586;2023-04-25T04:53:15;17.60;66.30
53978;DHT22;39886;47.984;-1.586;2023-04-25T04:55:41;17.50;66.20
53978;DHT22;39886;47.984;-1.586;2023-04-25T04:58:08;17.60;66.30
53978;DHT22;39886;47.984;-1.586;2023-04-25T05:00:33;17.60;66.20
53978;DHT22;39886;47.984;-1.586;2023-04-25T05:02:59;17.50;66.20
53978;DHT22;39886;47.984;-1.586;2023-04-25T05:05:25;17.50;66.20
53978;DHT22;39886;47.984;-1.586;2023-04-25T05:07:51;17.50;66.20
53978;DHT22;39886;47.984;-1.586;2023-04-25T05:10:18;17.50;66.10
53978;DHT22;39886;47.984;-1.586;2023-04-25T05:12:44;17.50;66.10
53978;DHT22;39886;47.984;-1.586;2023-04-25T05:15:10;17.50;66.20
53978;DHT22;39886;47.984;-1.586;2023-04-25T05:17:36;17.50;66.10
53978;DHT22;39886;47.984;-1.586;2023-04-25T05:20:02;17.50;66.20
53978;DHT22;39886;47.984;-1.586;2023-04-25T05:22:29;17.50;66.10
53978;DHT22;39886;47.984;-1.586;2023-04-25T05:24:55;17.50;66.10
53978;DHT22;39886;47.984;-1.586;2023-04-25T05:27:21;17.50;66.10
53978;DHT22;39886;47.984;-1.586;2023-04-25T05:29:46;17.50;66.10
53978;DHT22;39886;47.984;-1.586;2023-04-25T05:32:12;17.50;66.10
53978;DHT22;39886;47.984;-1.586;2023-04-25T05:34:38;17.50;66.10
53978;DHT22;39886;47.984;-1.586;2023-04-25T05:37:04;17.50;66.10
53978;DHT22;39886;47.984;-1.586;2023-04-25T05:39:29;17.50;66.10
53978;DHT22;39886;47.984;-1.586;2023-04-25T05:41:55;17.50;66.00
53978;DHT22;39886;47.984;-1.586;2023-04-25T05:44:21;17.50;66.00
53978;DHT22;39886;47.984;-1.586;2023-04-25T05:46:47;17.50;66.00
53978;DHT22;39886;47.984;-1.586;2023-04-25T05:49:13;17.50;66.00
53978;DHT22;39886;47.984;-1.586;2023-04-25T05:51:38;17.50;66.00
53978;DHT22;39886;47.984;-1.586;2023-04-25T05:54:04;17.50;66.00
53978;DHT22;39886;47.984;-1.586;2023-04-25T05:56:30;17.50;65.90
53978;DHT22;39886;47.984;-1.586;2023-04-25T05:58:56;17.50;65.90
53978;DHT22;39886;47.984;-1.586;2023-04-25T06:01:22;17.50;65.90
53978;DHT22;39886;47.984;-1.586;2023-04-25T06:03:48;17.50;65.90
53978;DHT22;39886;47.984;-1.586;2023-04-25T06:06:14;17.50;65.80
53978;DHT22;39886;47.984;-1.586;2023-04-25T06:08:40;17.50;65.80
53978;DHT22;39886;47.984;-1.586;2023-04-25T06:11:06;17.50;65.80
53978;DHT22;39886;47.984;-1.586;2023-04-25T06:13:33;17.50;65.80
53978;DHT22;39886;47.984;-1.586;2023-04-25T06:15:59;17.50;65.80
53978;DHT22;39886;47.984;-1.586;2023-04-25T06:18:28;17.60;65.80
53978;DHT22;39886;47.984;-1.586;2023-04-25T06:20:53;17.60;65.80
53978;DHT22;39886;47.984;-1.586;2023-04-25T06:23:19;17.60;65.70
53978;DHT22;39886;47.984;-1.586;2023-04-25T06:25:45;17.60;65.70
53978;DHT22;39886;47.984;-1.586;2023-04-25T06:28:10;17.60;65.70
53978;DHT22;39886;47.984;-1.586;2023-04-25T06:30:36;17.60;65.70
53978;DHT22;39886;47.984;-1.586;2023-04-25T06:33:02;17.60;65.70
53978;DHT22;39886;47.984;-1.586;2023-04-25T06:35:27;17.60;65.70
53978;DHT22;39886;47.984;-1.586;2023-04-25T06:37:53;17.70;65.60
53978;DHT22;39886;47.984;-1.586;2023-04-25T06:40:19;17.70;65.70
53978;DHT22;39886;47.984;-1.586;2023-04-25T06:42:45;17.70;65.60
53978;DHT22;39886;47.984;-1.586;2023-04-25T06:45:10;17.70;65.60
53978;DHT22;39886;47.984;-1.586;2023-04-25T06:47:36;17.80;65.50
53978;DHT22;39886;47.984;-1.586;2023-04-25T06:50:02;17.80;65.50
53978;DHT22;39886;47.984;-1.586;2023-04-25T06:52:28;17.90;65.80
53978;DHT22;39886;47.984;-1.586;2023-04-25T06:54:53;17.90;65.80
53978;DHT22;39886;47.984;-1.586;2023-04-25T06:57:19;17.90;66.00
53978;DHT22;39886;47.984;-1.586;2023-04-25T06:59:45;18.00;66.10
53978;DHT22;39886;47.984;-1.586;2023-04-25T07:02:11;18.00;66.40
53978;DHT22;39886;47.984;-1.586;2023-04-25T07:04:36;18.10;66.40
53978;DHT22;39886;47.984;-1.586;2023-04-25T07:07:02;18.10;66.30
53978;DHT22;39886;47.984;-1.586;2023-04-25T07:09:29;18.10;66.10
53978;DHT22;39886;47.984;-1.586;2023-04-25T07:11:55;18.10;66.00
53978;DHT22;39886;47.984;-1.586;2023-04-25T07:14:21;18.20;66.10
53978;DHT22;39886;47.984;-1.586;2023-04-25T07:16:47;18.20;66.30
53978;DHT22;39886;47.984;-1.586;2023-04-25T07:19:13;18.30;66.50
53978;DHT22;39886;47.984;-1.586;2023-04-25T07:21:39;18.30;66.50
53978;DHT22;39886;47.984;-1.586;2023-04-25T07:24:05;18.40;66.60
53978;DHT22;39886;47.984;-1.586;2023-04-25T07:26:31;18.40;66.50
53978;DHT22;39886;47.984;-1.586;2023-04-25T07:28:57;18.40;66.60
53978;DHT22;39886;47.984;-1.586;2023-04-25T07:31:22;18.50;66.60
53978;DHT22;39886;47.984;-1.586;2023-04-25T07:33:48;18.60;66.70
53978;DHT22;39886;47.984;-1.586;2023-04-25T07:36:14;18.60;66.60
53978;DHT22;39886;47.984;-1.586;2023-04-25T07:38:41;18.60;66.70
53978;DHT22;39886;47.984;-1.586;2023-04-25T07:41:07;18.60;66.70
53978;DHT22;39886;47.984;-1.586;2023-04-25T07:43:32;18.60;66.50
53978;DHT22;39886;47.984;-1.586;2023-04-25T07:45:58;18.70;66.60
53978;DHT22;39886;47.984;-1.586;2023-04-25T07:48:24;18.70;67.20
53978;DHT22;39886;47.984;-1.586;2023-04-25T07:50:50;18.80;66.80
53978;DHT22;39886;47.984;-1.586;2023-04-25T07:53:16;18.80;66.70
53978;DHT22;39886;47.984;-1.586;2023-04-25T07:55:43;18.80;66.60
53978;DHT22;39886;47.984;-1.586;2023-04-25T07:58:10;18.80;66.60
53978;DHT22;39886;47.984;-1.586;2023-04-25T08:00:36;18.90;66.90
53978;DHT22;39886;47.984;-1.586;2023-04-25T08:03:02;18.90;66.70
53978;DHT22;39886;47.984;-1.586;2023-04-25T08:05:28;19.00;66.70
53978;DHT22;39886;47.984;-1.586;2023-04-25T08:07:54;19.00;66.90
53978;DHT22;39886;47.984;-1.586;2023-04-25T08:10:21;19.00;66.70
53978;DHT22;39886;47.984;-1.586;2023-04-25T08:12:48;19.00;66.70
53978;DHT22;39886;47.984;-1.586;2023-04-25T08:15:14;19.10;66.90
53978;DHT22;39886;47.984;-1.586;2023-04-25T08:17:40;19.10;66.90
53978;DHT22;39886;47.984;-1.586;2023-04-25T08:20:06;19.10;66.90
53978;DHT22;39886;47.984;-1.586;2023-04-25T08:22:32;19.10;66.80
53978;DHT22;39886;47.984;-1.586;2023-04-25T08:24:59;19.10;66.80
53978;DHT22;39886;47.984;-1.586;2023-04-25T08:27:25;19.20;66.80
53978;DHT22;39886;47.984;-1.586;2023-04-25T08:29:50;19.20;66.70
53978;DHT22;39886;47.984;-1.586;2023-04-25T08:32:16;19.20;66.70
53978;DHT22;39886;47.984;-1.586;2023-04-25T08:34:42;19.20;66.60
53978;DHT22;39886;47.984;-1.586;2023-04-25T08:37:09;19.20;66.50
53978;DHT22;39886;47.984;-1.586;2023-04-25T08:39:36;19.30;66.40
53978;DHT22;39886;47.984;-1.586;2023-04-25T08:42:05;19.50;66.00
53978;DHT22;39886;47.984;-1.586;2023-04-25T08:44:34;19.70;65.60
53978;DHT22;39886;47.984;-1.586;2023-04-25T08:47:03;19.80;65.30
53978;DHT22;39886;47.984;-1.586;2023-04-25T08:49:31;19.90;64.90
53978;DHT22;39886;47.984;-1.586;2023-04-25T08:52:00;20.10;64.80
53978;DHT22;39886;47.984;-1.586;2023-04-25T08:54:27;20.20;64.60
53978;DHT22;39886;47.984;-1.586;2023-04-25T08:56:55;20.30;64.50
53978;DHT22;39886;47.984;-1.586;2023-04-25T08:59:23;20.40;64.20
53978;DHT22;39886;47.984;-1.586;2023-04-25T09:01:49;20.50;64.00
53978;DHT22;39886;47.984;-1.586;2023-04-25T09:04:15;20.60;63.90
53978;DHT22;39886;47.984;-1.586;2023-04-25T09:06:41;20.70;63.90
53978;DHT22;39886;47.984;-1.586;2023-04-25T09:09:08;20.80;63.90
53978;DHT22;39886;47.984;-1.586;2023-04-25T09:11:36;20.80;63.60
53978;DHT22;39886;47.984;-1.586;2023-04-25T09:14:19;20.90;63.40
53978;DHT22;39886;47.984;-1.586;2023-04-25T09:16:58;21.00;63.50
53978;DHT22;39886;47.984;-1.586;2023-04-25T09:19:37;21.10;63.20
53978;DHT22;39886;47.984;-1.586;2023-04-25T09:22:06;21.10;63.20
53978;DHT22;39886;47.984;-1.586;2023-04-25T09:24:36;21.20;63.20
53978;DHT22;39886;47.984;-1.586;2023-04-25T09:27:06;21.30;62.40
53978;DHT22;39886;47.984;-1.586;2023-04-25T09:29:39;21.30;62.20
53978;DHT22;39886;47.984;-1.586;2023-04-25T09:32:13;21.30;62.40
53978;DHT22;39886;47.984;-1.586;2023-04-25T09:34:47;21.50;62.40
53978;DHT22;39886;47.984;-1.586;2023-04-25T09:37:24;21.50;62.20
53978;DHT22;39886;47.984;-1.586;2023-04-25T09:39:59;21.60;61.90
53978;DHT22;39886;47.984;-1.586;2023-04-25T09:42:29;21.70;61.90
53978;DHT22;39886;47.984;-1.586;2023-04-25T09:44:57;21.60;61.80
53978;DHT22;39886;47.984;-1.586;2023-04-25T09:47:24;21.60;61.60
53978;DHT22;39886;47.984;-1.586;2023-04-25T09:49:51;21.50;62.00
53978;DHT22;39886;47.984;-1.586;2023-04-25T09:52:22;21.50;62.30
53978;DHT22;39886;47.984;-1.586;2023-04-25T09:54:49;21.50;62.60
53978;DHT22;39886;47.984;-1.586;2023-04-25T09:57:16;21.40;62.70
53978;DHT22;39886;47.984;-1.586;2023-04-25T10:02:13;21.30;63.00
53978;DHT22;39886;47.984;-1.586;2023-04-25T10:04:41;21.20;63.30
53978;DHT22;39886;47.984;-1.586;2023-04-25T10:07:08;21.20;63.40
53978;DHT22;39886;47.984;-1.586;2023-04-25T10:09:37;21.20;63.30
53978;DHT22;39886;47.984;-1.586;2023-04-25T10:12:05;21.10;63.20
53978;DHT22;39886;47.984;-1.586;2023-04-25T10:14:31;21.10;63.30
53978;DHT22;39886;47.984;-1.586;2023-04-25T10:16:58;21.10;63.40
53978;DHT22;39886;47.984;-1.586;2023-04-25T10:19:25;21.00;63.40
53978;DHT22;39886;47.984;-1.586;2023-04-25T10:22:17;21.00;63.20
53978;DHT22;39886;47.984;-1.586;2023-04-25T10:24:40;20.90;63.20
53978;DHT22;39886;47.984;-1.586;2023-04-25T10:27:07;21.00;63.10
53978;DHT22;39886;47.984;-1.586;2023-04-25T10:29:33;21.00;63.20
53978;DHT22;39886;47.984;-1.586;2023-04-25T10:32:00;20.90;63.10
53978;DHT22;39886;47.984;-1.586;2023-04-25T10:34:40;21.00;63.10
53978;DHT22;39886;47.984;-1.586;2023-04-25T10:37:09;21.00;63.00
53978;DHT22;39886;47.984;-1.586;2023-04-25T10:39:35;21.00;62.90
53978;DHT22;39886;47.984;-1.586;2023-04-25T10:42:02;21.00;62.80
53978;DHT22;39886;47.984;-1.586;2023-04-25T10:44:32;20.90;62.70
53978;DHT22;39886;47.984;-1.586;2023-04-25T10:47:01;20.90;62.70
53978;DHT22;39886;47.984;-1.586;2023-04-25T10:49:33;20.90;62.70
53978;DHT22;39886;47.984;-1.586;2023-04-25T10:52:24;20.90;62.70
53978;DHT22;39886;47.984;-1.586;2023-04-25T10:54:55;20.90;62.70
53978;DHT22;39886;47.984;-1.586;2023-04-25T10:59:58;20.90;62.50
53978;DHT22;39886;47.984;-1.586;2023-04-25T11:02:27;20.90;62.60
53978;DHT22;39886;47.984;-1.586;2023-04-25T11:04:54;20.90;63.20
53978;DHT22;39886;47.984;-1.586;2023-04-25T11:07:29;20.90;62.50
53978;DHT22;39886;47.984;-1.586;2023-04-25T11:09:57;20.80;62.50
53978;DHT22;39886;47.984;-1.586;2023-04-25T11:12:24;20.80;62.50
53978;DHT22;39886;47.984;-1.586;2023-04-25T11:14:50;20.80;62.60
53978;DHT22;39886;47.984;-1.586;2023-04-25T11:17:16;20.80;62.60
53978;DHT22;39886;47.984;-1.586;2023-04-25T11:19:41;20.80;62.50
53978;DHT22;39886;47.984;-1.586;2023-04-25T11:22:07;20.80;62.40
53978;DHT22;39886;47.984;-1.586;2023-04-25T11:24:35;20.80;62.40
53978;DHT22;39886;47.984;-1.586;2023-04-25T11:27:03;20.80;62.40
53978;DHT22;39886;47.984;-1.586;2023-04-25T11:29:33;20.70;62.40
53978;DHT22;39886;47.984;-1.586;2023-04-25T11:31:59;20.70;62.40
53978;DHT22;39886;47.984;-1.586;2023-04-25T11:34:27;20.70;62.50
53978;DHT22;39886;47.984;-1.586;2023-04-25T11:36:56;20.70;62.40
53978;DHT22;39886;47.984;-1.586;2023-04-25T11:39:23;20.70;62.60
53978;DHT22;39886;47.984;-1.586;2023-04-25T11:41:49;20.80;62.60
53978;DHT22;39886;47.984;-1.586;2023-04-25T11:44:16;20.70;62.60
53978;DHT22;39886;47.984;-1.586;2023-04-25T11:46:43;20.70;62.60
53978;DHT22;39886;47.984;-1.586;2023-04-25T11:49:09;20.70;62.70
53978;DHT22;39886;47.984;-1.586;2023-04-25T11:51:41;20.70;62.70
53978;DHT22;39886;47.984;-1.586;2023-04-25T11:54:08;20.70;62.90
53978;DHT22;39886;47.984;-1.586;2023-04-25T11:56:34;20.80;62.60
53978;DHT22;39886;47.984;-1.586;2023-04-25T11:59:05;20.70;62.40
53978;DHT22;39886;47.984;-1.586;2023-04-25T12:01:35;20.70;62.50
53978;DHT22;39886;47.984;-1.586;2023-04-25T12:04:13;20.70;62.70
53978;DHT22;39886;47.984;-1.586;2023-04-25T12:06:40;20.70;62.50
53978;DHT22;39886;47.984;-1.586;2023-04-25T12:09:09;20.70;62.30
53978;DHT22;39886;47.984;-1.586;2023-04-25T12:11:46;20.70;61.90
53978;DHT22;39886;47.984;-1.586;2023-04-25T12:14:20;20.70;62.30
53978;DHT22;39886;47.984;-1.586;2023-04-25T12:16:47;20.70;62.60
53978;DHT22;39886;47.984;-1.586;2023-04-25T12:19:18;20.70;62.50
53978;DHT22;39886;47.984;-1.586;2023-04-25T12:21:44;20.70;62.60
53978;DHT22;39886;47.984;-1.586;2023-04-25T12:24:10;20.70;62.40
53978;DHT22;39886;47.984;-1.586;2023-04-25T12:29:22;20.70;62.40
53978;DHT22;39886;47.984;-1.586;2023-04-25T12:31:49;20.70;62.40
53978;DHT22;39886;47.984;-1.586;2023-04-25T12:34:15;20.70;62.50
53978;DHT22;39886;47.984;-1.586;2023-04-25T12:36:41;20.70;62.60
53978;DHT22;39886;47.984;-1.586;2023-04-25T12:39:07;20.70;62.50
53978;DHT22;39886;47.984;-1.586;2023-04-25T12:41:33;20.80;62.80
53978;DHT22;39886;47.984;-1.586;2023-04-25T12:43:59;20.80;61.80
53978;DHT22;39886;47.984;-1.586;2023-04-25T12:46:25;20.80;61.60
53978;DHT22;39886;47.984;-1.586;2023-04-25T12:48:51;20.80;61.80
53978;DHT22;39886;47.984;-1.586;2023-04-25T12:51:17;20.80;61.80
53978;DHT22;39886;47.984;-1.586;2023-04-25T12:53:42;20.80;61.90
53978;DHT22;39886;47.984;-1.586;2023-04-25T12:56:08;20.80;61.90
53978;DHT22;39886;47.984;-1.586;2023-04-25T12:58:34;20.70;62.00
53978;DHT22;39886;47.984;-1.586;2023-04-25T13:01:00;20.80;62.10
53978;DHT22;39886;47.984;-1.586;2023-04-25T13:03:26;20.80;62.00
53978;DHT22;39886;47.984;-1.586;2023-04-25T13:05:52;20.80;61.90
53978;DHT22;39886;47.984;-1.586;2023-04-25T13:08:21;20.80;61.70
53978;DHT22;39886;47.984;-1.586;2023-04-25T13:10:49;20.90;61.60
53978;DHT22;39886;47.984;-1.586;2023-04-25T13:13:15;20.90;61.60
53978;DHT22;39886;47.984;-1.586;2023-04-25T13:15:42;20.90;61.40
53978;DHT22;39886;47.984;-1.586;2023-04-25T13:18:07;20.90;61.10
53978;DHT22;39886;47.984;-1.586;2023-04-25T13:20:33;20.80;61.40
53978;DHT22;39886;47.984;-1.586;2023-04-25T13:22:59;20.90;61.60
53978;DHT22;39886;47.984;-1.586;2023-04-25T13:25:25;20.90;61.40
53978;DHT22;39886;47.984;-1.586;2023-04-25T13:27:51;20.90;61.60
53978;DHT22;39886;47.984;-1.586;2023-04-25T13:30:17;20.90;61.70
53978;DHT22;39886;47.984;-1.586;2023-04-25T13:32:43;20.90;61.20
53978;DHT22;39886;47.984;-1.586;2023-04-25T13:35:11;20.90;61.10
53978;DHT22;39886;47.984;-1.586;2023-04-25T13:37:38;20.90;60.70
53978;DHT22;39886;47.984;-1.586;2023-04-25T13:40:08;20.90;60.60
53978;DHT22;39886;47.984;-1.586;2023-04-25T13:42:36;20.90;60.40
53978;DHT22;39886;47.984;-1.586;2023-04-25T13:45:02;20.90;60.80
53978;DHT22;39886;47.984;-1.586;2023-04-25T13:47:29;20.90;60.80
53978;DHT22;39886;47.984;-1.586;2023-04-25T13:49:55;20.90;60.90
53978;DHT22;39886;47.984;-1.586;2023-04-25T13:52:21;20.90;61.00
53978;DHT22;39886;47.984;-1.586;2023-04-25T13:54:47;20.90;61.00
53978;DHT22;39886;47.984;-1.586;2023-04-25T13:57:13;20.90;61.00
53978;DHT22;39886;47.984;-1.586;2023-04-25T13:59:39;20.90;61.10
53978;DHT22;39886;47.984;-1.586;2023-04-25T14:02:06;20.90;60.60
53978;DHT22;39886;47.984;-1.586;2023-04-25T14:04:33;20.90;61.10
53978;DHT22;39886;47.984;-1.586;2023-04-25T14:06:58;21.00;61.30
53978;DHT22;39886;47.984;-1.586;2023-04-25T14:09:25;21.00;60.90
53978;DHT22;39886;47.984;-1.586;2023-04-25T14:11:52;21.00;60.90
53978;DHT22;39886;47.984;-1.586;2023-04-25T14:14:19;21.00;60.80
53978;DHT22;39886;47.984;-1.586;2023-04-25T14:16:46;21.00;61.00
53978;DHT22;39886;47.984;-1.586;2023-04-25T14:19:14;21.00;60.80
53978;DHT22;39886;47.984;-1.586;2023-04-25T14:21:39;21.00;60.60
53978;DHT22;39886;47.984;-1.586;2023-04-25T14:24:06;21.00;60.60
53978;DHT22;39886;47.984;-1.586;2023-04-25T14:26:33;21.00;60.10
53978;DHT22;39886;47.984;-1.586;2023-04-25T14:29:00;21.00;60.30
53978;DHT22;39886;47.984;-1.586;2023-04-25T14:31:26;21.10;60.40
53978;DHT22;39886;47.984;-1.586;2023-04-25T14:33:53;21.10;60.50
53978;DHT22;39886;47.984;-1.586;2023-04-25T14:36:19;21.10;60.40
53978;DHT22;39886;47.984;-1.586;2023-04-25T14:38:44;21.00;60.40
53978;DHT22;39886;47.984;-1.586;2023-04-25T14:41:11;21.00;60.50
53978;DHT22;39886;47.984;-1.586;2023-04-25T14:43:37;21.00;60.70
53978;DHT22;39886;47.984;-1.586;2023-04-25T14:46:03;21.00;60.60
53978;DHT22;39886;47.984;-1.586;2023-04-25T14:48:29;21.00;60.60
53978;DHT22;39886;47.984;-1.586;2023-04-25T14:50:55;21.00;60.10
53978;DHT22;39886;47.984;-1.586;2023-04-25T14:53:23;21.00;60.10
53978;DHT22;39886;47.984;-1.586;2023-04-25T14:55:49;21.00;60.20
53978;DHT22;39886;47.984;-1.586;2023-04-25T14:58:15;21.00;60.00
53978;DHT22;39886;47.984;-1.586;2023-04-25T15:00:41;21.00;60.10
53978;DHT22;39886;47.984;-1.586;2023-04-25T15:03:07;21.10;60.20
53978;DHT22;39886;47.984;-1.586;2023-04-25T15:05:33;21.10;60.20
53978;DHT22;39886;47.984;-1.586;2023-04-25T15:07:59;21.10;60.20
53978;DHT22;39886;47.984;-1.586;2023-04-25T15:10:25;21.10;59.70
53978;DHT22;39886;47.984;-1.586;2023-04-25T15:12:51;21.10;59.80
53978;DHT22;39886;47.984;-1.586;2023-04-25T15:15:19;21.10;59.80
53978;DHT22;39886;47.984;-1.586;2023-04-25T15:17:45;21.10;59.90
53978;DHT22;39886;47.984;-1.586;2023-04-25T15:20:12;21.10;59.90